sensor_id;sensor_type;location;lat;lon;timestamp;P1;durP1;ratioP1;P2;durP2;ratioP2
53521;SDS011;39398;48.382;9.802;2022-07-23T00:00:45;5.40;;;4.90;;
53521;SDS011;39398;48.382;9.802;2022-07-23T00:01:46;6.38;;;4.80;;
53521;SDS011;39398;48.382;9.802;2022-07-23T00:02:48;6.20;;;5.57;;
53521;SDS011;39398;48.382;9.802;2022-07-23T00:03:50;7.53;;;5.38;;
53521;SDS011;39398;48.382;9.802;2022-07-23T00:04:51;6.97;;;5.43;;
53521;SDS011;39398;48.382;9.802;2022-07-23T00:05:53;10.35;;;5.45;;
53521;SDS011;39398;48.382;9.802;2022-07-23T00:06:55;8.52;;;5.22;;
53521;SDS011;39398;48.382;9.802;2022-07-23T00:07:56;6.30;;;5.18;;
53521;SDS011;39398;48.382;9.802;2022-07-23T00:08:58;6.18;;;5.55;;
53521;SDS011;39398;48.382;9.802;2022-07-23T00:10:00;5.40;;;4.90;;
53521;SDS011;39398;48.382;9.802;2022-07-23T00:11:03;9.27;;;5.60;;
53521;SDS011;39398;48.382;9.802;2022-07-23T00:12:05;7.13;;;5.03;;
53521;SDS011;39398;48.382;9.802;2022-07-23T00:13:06;6.97;;;5.40;;
53521;SDS011;39398;48.382;9.802;2022-07-23T00:14:08;6.45;;;5.50;;
53521;SDS011;39398;48.382;9.802;2022-07-23T00:15:10;5.72;;;5.00;;
53521;SDS011;39398;48.382;9.802;2022-07-23T00:16:11;5.82;;;5.13;;
53521;SDS011;39398;48.382;9.802;2022-07-23T00:17:13;6.68;;;5.20;;
53521;SDS011;39398;48.382;9.802;2022-07-23T00:18:15;6.68;;;5.30;;
53521;SDS011;39398;48.382;9.802;2022-07-23T00:19:16;6.15;;;5.10;;
53521;SDS011;39398;48.382;9.802;2022-07-23T00:20:18;5.82;;;5.22;;
53521;SDS011;39398;48.382;9.802;2022-07-23T00:21:19;6.78;;;5.22;;
53521;SDS011;39398;48.382;9.802;2022-07-23T00:22:21;6.95;;;5.78;;
53521;SDS011;39398;48.382;9.802;2022-07-23T00:23:22;7.13;;;5.97;;
53521;SDS011;39398;48.382;9.802;2022-07-23T00:24:24;7.22;;;5.65;;
53521;SDS011;39398;48.382;9.802;2022-07-23T00:25:26;7.95;;;5.80;;
53521;SDS011;39398;48.382;9.802;2022-07-23T00:26:32;9.93;;;5.53;;
53521;SDS011;39398;48.382;9.802;2022-07-23T00:27:34;6.72;;;6.03;;
53521;SDS011;39398;48.382;9.802;2022-07-23T00:28:35;7.38;;;5.18;;
53521;SDS011;39398;48.382;9.802;2022-07-23T00:29:37;8.48;;;5.18;;
53521;SDS011;39398;48.382;9.802;2022-07-23T00:30:38;6.80;;;5.40;;
53521;SDS011;39398;48.382;9.802;2022-07-23T00:31:40;7.18;;;5.40;;
53521;SDS011;39398;48.382;9.802;2022-07-23T00:32:45;6.13;;;5.32;;
53521;SDS011;39398;48.382;9.802;2022-07-23T00:33:56;7.38;;;5.30;;
53521;SDS011;39398;48.382;9.802;2022-07-23T00:34:58;5.95;;;5.03;;
53521;SDS011;39398;48.382;9.802;2022-07-23T00:35:59;6.47;;;5.28;;
53521;SDS011;39398;48.382;9.802;2022-07-23T00:37:01;7.22;;;5.30;;
53521;SDS011;39398;48.382;9.802;2022-07-23T00:38:03;5.55;;;5.05;;
53521;SDS011;39398;48.382;9.802;2022-07-23T00:39:05;5.93;;;5.30;;
53521;SDS011;39398;48.382;9.802;2022-07-23T00:40:07;7.35;;;6.03;;
53521;SDS011;39398;48.382;9.802;2022-07-23T00:41:10;5.78;;;5.18;;
53521;SDS011;39398;48.382;9.802;2022-07-23T00:42:13;6.50;;;5.85;;
53521;SDS011;39398;48.382;9.802;2022-07-23T00:43:14;6.75;;;5.50;;
53521;SDS011;39398;48.382;9.802;2022-07-23T00:44:17;6.57;;;5.30;;
53521;SDS011;39398;48.382;9.802;2022-07-23T00:45:20;6.30;;;5.50;;
53521;SDS011;39398;48.382;9.802;2022-07-23T00:46:22;8.20;;;5.35;;
53521;SDS011;39398;48.382;9.802;2022-07-23T00:47:24;7.53;;;6.10;;
53521;SDS011;39398;48.382;9.802;2022-07-23T00:48:25;8.40;;;5.95;;
53521;SDS011;39398;48.382;9.802;2022-07-23T00:49:28;7.35;;;5.18;;
53521;SDS011;39398;48.382;9.802;2022-07-23T00:50:30;8.40;;;5.55;;
53521;SDS011;39398;48.382;9.802;2022-07-23T00:51:32;9.05;;;5.35;;
53521;SDS011;39398;48.382;9.802;2022-07-23T00:52:34;5.95;;;4.82;;
53521;SDS011;39398;48.382;9.802;2022-07-23T00:53:36;7.13;;;5.18;;
53521;SDS011;39398;48.382;9.802;2022-07-23T00:54:38;5.10;;;4.57;;
53521;SDS011;39398;48.382;9.802;2022-07-23T00:55:40;7.07;;;5.40;;
53521;SDS011;39398;48.382;9.802;2022-07-23T00:56:42;5.30;;;4.80;;
53521;SDS011;39398;48.382;9.802;2022-07-23T00:57:47;7.80;;;4.85;;
53521;SDS011;39398;48.382;9.802;2022-07-23T00:58:48;5.70;;;4.93;;
53521;SDS011;39398;48.382;9.802;2022-07-23T00:59:50;5.07;;;4.57;;
53521;SDS011;39398;48.382;9.802;2022-07-23T01:00:52;5.60;;;4.40;;
53521;SDS011;39398;48.382;9.802;2022-07-23T01:01:54;5.40;;;4.38;;
53521;SDS011;39398;48.382;9.802;2022-07-23T01:02:55;5.35;;;4.78;;
53521;SDS011;39398;48.382;9.802;2022-07-23T01:03:57;6.72;;;5.15;;
53521;SDS011;39398;48.382;9.802;2022-07-23T01:04:59;5.72;;;5.10;;
53521;SDS011;39398;48.382;9.802;2022-07-23T01:06:00;6.57;;;4.97;;
53521;SDS011;39398;48.382;9.802;2022-07-23T01:07:02;8.70;;;5.50;;
53521;SDS011;39398;48.382;9.802;2022-07-23T01:08:05;6.78;;;5.45;;
53521;SDS011;39398;48.382;9.802;2022-07-23T01:09:06;6.25;;;5.55;;
53521;SDS011;39398;48.382;9.802;2022-07-23T01:10:08;7.53;;;5.90;;
53521;SDS011;39398;48.382;9.802;2022-07-23T01:11:13;8.23;;;5.35;;
53521;SDS011;39398;48.382;9.802;2022-07-23T01:12:14;8.95;;;6.32;;
53521;SDS011;39398;48.382;9.802;2022-07-23T01:13:17;6.82;;;5.93;;
53521;SDS011;39398;48.382;9.802;2022-07-23T01:14:19;8.75;;;6.68;;
53521;SDS011;39398;48.382;9.802;2022-07-23T01:15:21;7.25;;;6.00;;
53521;SDS011;39398;48.382;9.802;2022-07-23T01:16:23;10.75;;;6.10;;
53521;SDS011;39398;48.382;9.802;2022-07-23T01:17:24;8.13;;;6.35;;
53521;SDS011;39398;48.382;9.802;2022-07-23T01:18:26;7.75;;;6.13;;
53521;SDS011;39398;48.382;9.802;2022-07-23T01:19:27;8.73;;;6.30;;
53521;SDS011;39398;48.382;9.802;2022-07-23T01:20:29;7.13;;;5.80;;
53521;SDS011;39398;48.382;9.802;2022-07-23T01:21:30;7.50;;;6.13;;
53521;SDS011;39398;48.382;9.802;2022-07-23T01:22:34;6.78;;;6.18;;
53521;SDS011;39398;48.382;9.802;2022-07-23T01:23:35;7.00;;;6.30;;
53521;SDS011;39398;48.382;9.802;2022-07-23T01:24:37;10.02;;;6.40;;
53521;SDS011;39398;48.382;9.802;2022-07-23T01:25:46;6.68;;;5.90;;
53521;SDS011;39398;48.382;9.802;2022-07-23T01:26:48;9.45;;;6.40;;
53521;SDS011;39398;48.382;9.802;2022-07-23T01:27:50;9.57;;;6.18;;
53521;SDS011;39398;48.382;9.802;2022-07-23T01:28:53;9.48;;;6.28;;
53521;SDS011;39398;48.382;9.802;2022-07-23T01:29:54;9.10;;;6.28;;
53521;SDS011;39398;48.382;9.802;2022-07-23T01:30:58;7.55;;;6.05;;
53521;SDS011;39398;48.382;9.802;2022-07-23T01:31:59;9.15;;;6.07;;
53521;SDS011;39398;48.382;9.802;2022-07-23T01:33:01;8.15;;;6.40;;
53521;SDS011;39398;48.382;9.802;2022-07-23T01:34:02;8.55;;;6.25;;
53521;SDS011;39398;48.382;9.802;2022-07-23T01:35:05;8.73;;;6.70;;
53521;SDS011;39398;48.382;9.802;2022-07-23T01:36:08;8.88;;;6.55;;
53521;SDS011;39398;48.382;9.802;2022-07-23T01:37:10;9.52;;;6.68;;
53521;SDS011;39398;48.382;9.802;2022-07-23T01:38:13;8.32;;;6.43;;
53521;SDS011;39398;48.382;9.802;2022-07-23T01:39:14;8.80;;;6.38;;
53521;SDS011;39398;48.382;9.802;2022-07-23T01:40:17;7.30;;;6.60;;
53521;SDS011;39398;48.382;9.802;2022-07-23T01:41:19;7.88;;;6.35;;
53521;SDS011;39398;48.382;9.802;2022-07-23T01:42:21;8.73;;;6.38;;
53521;SDS011;39398;48.382;9.802;2022-07-23T01:43:23;10.90;;;6.40;;
53521;SDS011;39398;48.382;9.802;2022-07-23T01:44:27;6.85;;;6.10;;
53521;SDS011;39398;48.382;9.802;2022-07-23T01:45:29;7.50;;;6.57;;
53521;SDS011;39398;48.382;9.802;2022-07-23T01:46:34;8.32;;;6.43;;
53521;SDS011;39398;48.382;9.802;2022-07-23T01:47:35;6.65;;;5.97;;
53521;SDS011;39398;48.382;9.802;2022-07-23T01:48:37;8.10;;;6.05;;
53521;SDS011;39398;48.382;9.802;2022-07-23T01:49:38;7.60;;;6.60;;
53521;SDS011;39398;48.382;9.802;2022-07-23T01:50:40;8.52;;;6.18;;
53521;SDS011;39398;48.382;9.802;2022-07-23T01:51:41;8.30;;;5.80;;
53521;SDS011;39398;48.382;9.802;2022-07-23T01:52:43;8.32;;;6.20;;
53521;SDS011;39398;48.382;9.802;2022-07-23T01:53:46;9.55;;;6.20;;
53521;SDS011;39398;48.382;9.802;2022-07-23T01:54:47;8.68;;;6.55;;
53521;SDS011;39398;48.382;9.802;2022-07-23T01:55:49;11.20;;;6.45;;
53521;SDS011;39398;48.382;9.802;2022-07-23T01:56:50;9.35;;;6.75;;
53521;SDS011;39398;48.382;9.802;2022-07-23T01:57:52;9.23;;;7.22;;
53521;SDS011;39398;48.382;9.802;2022-07-23T01:58:53;8.85;;;6.53;;
53521;SDS011;39398;48.382;9.802;2022-07-23T01:59:55;8.32;;;6.43;;
53521;SDS011;39398;48.382;9.802;2022-07-23T02:00:56;10.10;;;7.20;;
53521;SDS011;39398;48.382;9.802;2022-07-23T02:01:58;7.63;;;6.32;;
53521;SDS011;39398;48.382;9.802;2022-07-23T02:03:00;7.13;;;6.47;;
53521;SDS011;39398;48.382;9.802;2022-07-23T02:04:01;8.48;;;6.93;;
53521;SDS011;39398;48.382;9.802;2022-07-23T02:05:03;8.25;;;6.70;;
53521;SDS011;39398;48.382;9.802;2022-07-23T02:06:05;9.50;;;7.25;;
53521;SDS011;39398;48.382;9.802;2022-07-23T02:07:06;7.47;;;6.72;;
53521;SDS011;39398;48.382;9.802;2022-07-23T02:08:08;8.65;;;7.40;;
53521;SDS011;39398;48.382;9.802;2022-07-23T02:09:11;10.02;;;7.88;;
53521;SDS011;39398;48.382;9.802;2022-07-23T02:10:12;8.98;;;7.45;;
53521;SDS011;39398;48.382;9.802;2022-07-23T02:11:14;10.23;;;7.93;;
53521;SDS011;39398;48.382;9.802;2022-07-23T02:12:15;9.57;;;7.53;;
53521;SDS011;39398;48.382;9.802;2022-07-23T02:13:17;9.32;;;7.80;;
53521;SDS011;39398;48.382;9.802;2022-07-23T02:14:19;9.35;;;7.95;;
53521;SDS011;39398;48.382;9.802;2022-07-23T02:15:20;10.20;;;8.13;;
53521;SDS011;39398;48.382;9.802;2022-07-23T02:16:22;11.85;;;7.80;;
53521;SDS011;39398;48.382;9.802;2022-07-23T02:17:24;9.50;;;7.97;;
53521;SDS011;39398;48.382;9.802;2022-07-23T02:18:25;10.43;;;8.20;;
53521;SDS011;39398;48.382;9.802;2022-07-23T02:19:27;9.50;;;8.05;;
53521;SDS011;39398;48.382;9.802;2022-07-23T02:20:44;9.70;;;8.50;;
53521;SDS011;39398;48.382;9.802;2022-07-23T02:21:45;8.98;;;7.63;;
53521;SDS011;39398;48.382;9.802;2022-07-23T02:22:47;11.13;;;8.52;;
53521;SDS011;39398;48.382;9.802;2022-07-23T02:23:48;10.68;;;8.45;;
53521;SDS011;39398;48.382;9.802;2022-07-23T02:24:51;9.70;;;7.90;;
53521;SDS011;39398;48.382;9.802;2022-07-23T02:25:53;10.77;;;8.18;;
53521;SDS011;39398;48.382;9.802;2022-07-23T02:26:55;12.13;;;8.57;;
53521;SDS011;39398;48.382;9.802;2022-07-23T02:27:56;9.15;;;8.13;;
53521;SDS011;39398;48.382;9.802;2022-07-23T02:28:58;10.68;;;8.38;;
53521;SDS011;39398;48.382;9.802;2022-07-23T02:30:00;9.82;;;8.75;;
53521;SDS011;39398;48.382;9.802;2022-07-23T02:31:01;11.00;;;8.35;;
53521;SDS011;39398;48.382;9.802;2022-07-23T02:32:03;9.93;;;8.93;;
53521;SDS011;39398;48.382;9.802;2022-07-23T02:33:07;11.40;;;9.02;;
53521;SDS011;39398;48.382;9.802;2022-07-23T02:34:09;11.27;;;9.68;;
53521;SDS011;39398;48.382;9.802;2022-07-23T02:35:10;12.10;;;8.50;;
53521;SDS011;39398;48.382;9.802;2022-07-23T02:36:12;11.30;;;8.80;;
53521;SDS011;39398;48.382;9.802;2022-07-23T02:37:13;11.45;;;8.63;;
53521;SDS011;39398;48.382;9.802;2022-07-23T02:38:15;11.48;;;9.45;;
53521;SDS011;39398;48.382;9.802;2022-07-23T02:39:17;14.82;;;9.77;;
53521;SDS011;39398;48.382;9.802;2022-07-23T02:40:19;10.77;;;9.07;;
53521;SDS011;39398;48.382;9.802;2022-07-23T02:41:21;11.32;;;8.75;;
53521;SDS011;39398;48.382;9.802;2022-07-23T02:42:23;10.27;;;8.73;;
53521;SDS011;39398;48.382;9.802;2022-07-23T02:43:24;10.75;;;8.70;;
53521;SDS011;39398;48.382;9.802;2022-07-23T02:44:26;11.93;;;8.85;;
53521;SDS011;39398;48.382;9.802;2022-07-23T02:45:27;9.88;;;8.88;;
53521;SDS011;39398;48.382;9.802;2022-07-23T02:46:29;16.75;;;9.48;;
53521;SDS011;39398;48.382;9.802;2022-07-23T02:47:30;10.05;;;8.98;;
53521;SDS011;39398;48.382;9.802;2022-07-23T02:48:32;12.25;;;8.43;;
53521;SDS011;39398;48.382;9.802;2022-07-23T02:49:35;11.95;;;9.18;;
53521;SDS011;39398;48.382;9.802;2022-07-23T02:50:37;11.27;;;9.27;;
53521;SDS011;39398;48.382;9.802;2022-07-23T02:51:39;12.88;;;9.38;;
53521;SDS011;39398;48.382;9.802;2022-07-23T02:52:41;11.00;;;9.43;;
53521;SDS011;39398;48.382;9.802;2022-07-23T02:53:43;9.82;;;8.15;;
53521;SDS011;39398;48.382;9.802;2022-07-23T02:54:44;10.85;;;8.85;;
53521;SDS011;39398;48.382;9.802;2022-07-23T02:55:47;12.45;;;9.25;;
53521;SDS011;39398;48.382;9.802;2022-07-23T02:56:49;12.25;;;8.63;;
53521;SDS011;39398;48.382;9.802;2022-07-23T02:57:50;13.23;;;9.00;;
53521;SDS011;39398;48.382;9.802;2022-07-23T02:58:52;11.73;;;8.70;;
53521;SDS011;39398;48.382;9.802;2022-07-23T02:59:53;11.57;;;8.60;;
53521;SDS011;39398;48.382;9.802;2022-07-23T03:00:55;9.07;;;7.75;;
53521;SDS011;39398;48.382;9.802;2022-07-23T03:01:56;11.10;;;8.40;;
53521;SDS011;39398;48.382;9.802;2022-07-23T03:02:58;11.43;;;8.88;;
53521;SDS011;39398;48.382;9.802;2022-07-23T03:03:59;10.10;;;8.90;;
53521;SDS011;39398;48.382;9.802;2022-07-23T03:05:01;16.02;;;9.07;;
53521;SDS011;39398;48.382;9.802;2022-07-23T03:06:03;10.93;;;9.30;;
53521;SDS011;39398;48.382;9.802;2022-07-23T03:07:05;11.00;;;9.65;;
53521;SDS011;39398;48.382;9.802;2022-07-23T03:08:06;10.57;;;9.48;;
53521;SDS011;39398;48.382;9.802;2022-07-23T03:09:08;13.25;;;10.15;;
53521;SDS011;39398;48.382;9.802;2022-07-23T03:10:09;13.10;;;9.68;;
53521;SDS011;39398;48.382;9.802;2022-07-23T03:11:12;14.73;;;9.73;;
53521;SDS011;39398;48.382;9.802;2022-07-23T03:12:17;13.02;;;9.75;;
53521;SDS011;39398;48.382;9.802;2022-07-23T03:13:19;14.88;;;9.73;;
53521;SDS011;39398;48.382;9.802;2022-07-23T03:14:20;12.23;;;9.63;;
53521;SDS011;39398;48.382;9.802;2022-07-23T03:15:22;13.23;;;10.02;;
53521;SDS011;39398;48.382;9.802;2022-07-23T03:16:23;11.35;;;10.15;;
53521;SDS011;39398;48.382;9.802;2022-07-23T03:17:25;13.07;;;9.73;;
53521;SDS011;39398;48.382;9.802;2022-07-23T03:18:26;12.13;;;10.02;;
53521;SDS011;39398;48.382;9.802;2022-07-23T03:19:28;10.75;;;9.45;;
53521;SDS011;39398;48.382;9.802;2022-07-23T03:20:30;13.98;;;9.93;;
53521;SDS011;39398;48.382;9.802;2022-07-23T03:21:31;15.13;;;10.27;;
53521;SDS011;39398;48.382;9.802;2022-07-23T03:22:33;14.77;;;10.13;;
53521;SDS011;39398;48.382;9.802;2022-07-23T03:23:34;12.23;;;9.02;;
53521;SDS011;39398;48.382;9.802;2022-07-23T03:24:36;11.57;;;10.38;;
53521;SDS011;39398;48.382;9.802;2022-07-23T03:25:38;11.73;;;9.68;;
53521;SDS011;39398;48.382;9.802;2022-07-23T03:26:40;11.40;;;10.20;;
53521;SDS011;39398;48.382;9.802;2022-07-23T03:27:42;11.80;;;9.75;;
53521;SDS011;39398;48.382;9.802;2022-07-23T03:28:43;11.85;;;9.57;;
53521;SDS011;39398;48.382;9.802;2022-07-23T03:29:45;10.85;;;9.50;;
53521;SDS011;39398;48.382;9.802;2022-07-23T03:30:47;11.52;;;10.32;;
53521;SDS011;39398;48.382;9.802;2022-07-23T03:31:48;11.27;;;9.70;;
53521;SDS011;39398;48.382;9.802;2022-07-23T03:32:50;15.55;;;10.65;;
53521;SDS011;39398;48.382;9.802;2022-07-23T03:33:52;12.55;;;9.90;;
53521;SDS011;39398;48.382;9.802;2022-07-23T03:34:53;13.05;;;9.85;;
53521;SDS011;39398;48.382;9.802;2022-07-23T03:35:55;14.45;;;10.73;;
53521;SDS011;39398;48.382;9.802;2022-07-23T03:36:57;13.00;;;10.60;;
53521;SDS011;39398;48.382;9.802;2022-07-23T03:37:58;16.83;;;11.07;;
53521;SDS011;39398;48.382;9.802;2022-07-23T03:39:01;16.13;;;10.70;;
53521;SDS011;39398;48.382;9.802;2022-07-23T03:40:04;18.60;;;11.68;;
53521;SDS011;39398;48.382;9.802;2022-07-23T03:41:06;17.08;;;10.77;;
53521;SDS011;39398;48.382;9.802;2022-07-23T03:42:09;13.05;;;10.32;;
53521;SDS011;39398;48.382;9.802;2022-07-23T03:43:11;14.52;;;10.48;;
53521;SDS011;39398;48.382;9.802;2022-07-23T03:44:12;19.92;;;10.40;;
53521;SDS011;39398;48.382;9.802;2022-07-23T03:45:14;15.80;;;9.88;;
53521;SDS011;39398;48.382;9.802;2022-07-23T03:46:27;18.50;;;11.07;;
53521;SDS011;39398;48.382;9.802;2022-07-23T03:47:29;13.93;;;11.57;;
53521;SDS011;39398;48.382;9.802;2022-07-23T03:48:31;13.20;;;10.77;;
53521;SDS011;39398;48.382;9.802;2022-07-23T03:49:33;14.80;;;11.32;;
53521;SDS011;39398;48.382;9.802;2022-07-23T03:50:34;13.80;;;9.73;;
53521;SDS011;39398;48.382;9.802;2022-07-23T03:51:36;14.82;;;10.90;;
53521;SDS011;39398;48.382;9.802;2022-07-23T03:52:37;16.90;;;11.10;;
53521;SDS011;39398;48.382;9.802;2022-07-23T03:53:39;12.43;;;10.60;;
53521;SDS011;39398;48.382;9.802;2022-07-23T03:54:49;14.73;;;11.15;;
53521;SDS011;39398;48.382;9.802;2022-07-23T03:55:51;14.20;;;11.10;;
53521;SDS011;39398;48.382;9.802;2022-07-23T03:56:52;13.27;;;9.95;;
53521;SDS011;39398;48.382;9.802;2022-07-23T03:57:55;16.33;;;11.00;;
53521;SDS011;39398;48.382;9.802;2022-07-23T03:58:57;18.77;;;11.80;;
53521;SDS011;39398;48.382;9.802;2022-07-23T03:59:59;15.10;;;12.30;;
53521;SDS011;39398;48.382;9.802;2022-07-23T04:01:00;14.98;;;11.65;;
53521;SDS011;39398;48.382;9.802;2022-07-23T04:02:02;16.52;;;12.13;;
53521;SDS011;39398;48.382;9.802;2022-07-23T04:03:04;18.17;;;10.90;;
53521;SDS011;39398;48.382;9.802;2022-07-23T04:04:05;17.05;;;11.50;;
53521;SDS011;39398;48.382;9.802;2022-07-23T04:05:07;16.40;;;10.98;;
53521;SDS011;39398;48.382;9.802;2022-07-23T04:06:09;12.38;;;10.18;;
53521;SDS011;39398;48.382;9.802;2022-07-23T04:07:10;16.52;;;10.77;;
53521;SDS011;39398;48.382;9.802;2022-07-23T04:08:12;16.80;;;10.57;;
53521;SDS011;39398;48.382;9.802;2022-07-23T04:09:13;15.73;;;11.13;;
53521;SDS011;39398;48.382;9.802;2022-07-23T04:10:15;19.58;;;10.85;;
53521;SDS011;39398;48.382;9.802;2022-07-23T04:11:16;13.38;;;11.23;;
53521;SDS011;39398;48.382;9.802;2022-07-23T04:12:18;15.70;;;11.55;;
53521;SDS011;39398;48.382;9.802;2022-07-23T04:13:21;14.07;;;11.07;;
53521;SDS011;39398;48.382;9.802;2022-07-23T04:14:22;17.98;;;11.93;;
53521;SDS011;39398;48.382;9.802;2022-07-23T04:15:24;13.93;;;10.27;;
53521;SDS011;39398;48.382;9.802;2022-07-23T04:16:25;13.98;;;10.52;;
53521;SDS011;39398;48.382;9.802;2022-07-23T04:17:27;12.05;;;10.75;;
53521;SDS011;39398;48.382;9.802;2022-07-23T04:18:29;15.48;;;11.07;;
53521;SDS011;39398;48.382;9.802;2022-07-23T04:19:30;13.32;;;10.45;;
53521;SDS011;39398;48.382;9.802;2022-07-23T04:20:32;13.10;;;10.18;;
53521;SDS011;39398;48.382;9.802;2022-07-23T04:21:40;11.52;;;9.38;;
53521;SDS011;39398;48.382;9.802;2022-07-23T04:22:42;12.15;;;9.63;;
53521;SDS011;39398;48.382;9.802;2022-07-23T04:23:43;11.82;;;9.90;;
53521;SDS011;39398;48.382;9.802;2022-07-23T04:24:45;10.85;;;9.75;;
53521;SDS011;39398;48.382;9.802;2022-07-23T04:25:47;10.85;;;9.35;;
53521;SDS011;39398;48.382;9.802;2022-07-23T04:26:48;11.73;;;8.85;;
53521;SDS011;39398;48.382;9.802;2022-07-23T04:27:50;11.70;;;9.48;;
53521;SDS011;39398;48.382;9.802;2022-07-23T04:28:53;10.65;;;9.55;;
53521;SDS011;39398;48.382;9.802;2022-07-23T04:29:54;11.45;;;9.63;;
53521;SDS011;39398;48.382;9.802;2022-07-23T04:30:56;18.02;;;11.73;;
53521;SDS011;39398;48.382;9.802;2022-07-23T04:31:58;19.38;;;12.20;;
53521;SDS011;39398;48.382;9.802;2022-07-23T04:32:59;17.90;;;11.48;;
53521;SDS011;39398;48.382;9.802;2022-07-23T04:34:01;15.80;;;11.85;;
53521;SDS011;39398;48.382;9.802;2022-07-23T04:35:02;17.15;;;10.63;;
53521;SDS011;39398;48.382;9.802;2022-07-23T04:36:04;16.48;;;11.02;;
53521;SDS011;39398;48.382;9.802;2022-07-23T04:37:06;17.23;;;11.27;;
53521;SDS011;39398;48.382;9.802;2022-07-23T04:38:08;15.85;;;11.27;;
53521;SDS011;39398;48.382;9.802;2022-07-23T04:39:09;14.93;;;10.38;;
53521;SDS011;39398;48.382;9.802;2022-07-23T04:40:11;12.13;;;9.55;;
53521;SDS011;39398;48.382;9.802;2022-07-23T04:41:13;12.05;;;9.95;;
53521;SDS011;39398;48.382;9.802;2022-07-23T04:42:15;11.43;;;9.50;;
53521;SDS011;39398;48.382;9.802;2022-07-23T04:43:16;12.90;;;10.23;;
53521;SDS011;39398;48.382;9.802;2022-07-23T04:44:19;13.75;;;10.25;;
53521;SDS011;39398;48.382;9.802;2022-07-23T04:45:21;12.82;;;10.65;;
53521;SDS011;39398;48.382;9.802;2022-07-23T04:46:23;15.90;;;10.35;;
53521;SDS011;39398;48.382;9.802;2022-07-23T04:47:25;15.98;;;10.85;;
53521;SDS011;39398;48.382;9.802;2022-07-23T04:48:28;18.17;;;10.57;;
53521;SDS011;39398;48.382;9.802;2022-07-23T04:49:30;14.02;;;10.30;;
53521;SDS011;39398;48.382;9.802;2022-07-23T04:50:31;12.23;;;10.27;;
53521;SDS011;39398;48.382;9.802;2022-07-23T04:51:33;16.20;;;9.98;;
53521;SDS011;39398;48.382;9.802;2022-07-23T04:52:35;13.82;;;9.80;;
53521;SDS011;39398;48.382;9.802;2022-07-23T04:53:36;12.82;;;9.10;;
53521;SDS011;39398;48.382;9.802;2022-07-23T04:54:38;10.70;;;8.88;;
53521;SDS011;39398;48.382;9.802;2022-07-23T04:55:40;13.05;;;8.50;;
53521;SDS011;39398;48.382;9.802;2022-07-23T04:56:41;12.48;;;8.80;;
53521;SDS011;39398;48.382;9.802;2022-07-23T04:57:43;12.65;;;9.00;;
53521;SDS011;39398;48.382;9.802;2022-07-23T04:58:44;12.32;;;8.98;;
53521;SDS011;39398;48.382;9.802;2022-07-23T04:59:47;12.18;;;9.02;;
53521;SDS011;39398;48.382;9.802;2022-07-23T05:00:49;13.80;;;8.07;;
53521;SDS011;39398;48.382;9.802;2022-07-23T05:01:50;10.23;;;8.48;;
53521;SDS011;39398;48.382;9.802;2022-07-23T05:02:52;11.88;;;8.48;;
53521;SDS011;39398;48.382;9.802;2022-07-23T05:03:53;12.45;;;8.82;;
53521;SDS011;39398;48.382;9.802;2022-07-23T05:04:55;9.98;;;8.13;;
53521;SDS011;39398;48.382;9.802;2022-07-23T05:05:56;10.13;;;8.40;;
53521;SDS011;39398;48.382;9.802;2022-07-23T05:06:58;10.48;;;8.77;;
53521;SDS011;39398;48.382;9.802;2022-07-23T05:07:59;9.77;;;8.20;;
53521;SDS011;39398;48.382;9.802;2022-07-23T05:09:01;11.95;;;8.30;;
53521;SDS011;39398;48.382;9.802;2022-07-23T05:10:04;8.93;;;7.90;;
53521;SDS011;39398;48.382;9.802;2022-07-23T05:11:05;12.85;;;8.30;;
53521;SDS011;39398;48.382;9.802;2022-07-23T05:12:07;11.93;;;8.75;;
53521;SDS011;39398;48.382;9.802;2022-07-23T05:13:09;10.95;;;8.60;;
53521;SDS011;39398;48.382;9.802;2022-07-23T05:14:10;11.30;;;8.60;;
53521;SDS011;39398;48.382;9.802;2022-07-23T05:15:13;11.73;;;8.95;;
53521;SDS011;39398;48.382;9.802;2022-07-23T05:16:15;10.60;;;8.38;;
53521;SDS011;39398;48.382;9.802;2022-07-23T05:17:16;12.30;;;9.15;;
53521;SDS011;39398;48.382;9.802;2022-07-23T05:18:18;14.00;;;8.80;;
53521;SDS011;39398;48.382;9.802;2022-07-23T05:19:19;10.52;;;8.63;;
53521;SDS011;39398;48.382;9.802;2022-07-23T05:20:25;12.75;;;8.95;;
53521;SDS011;39398;48.382;9.802;2022-07-23T05:21:27;10.15;;;8.32;;
53521;SDS011;39398;48.382;9.802;2022-07-23T05:22:28;14.65;;;9.00;;
53521;SDS011;39398;48.382;9.802;2022-07-23T05:23:30;11.57;;;8.10;;
53521;SDS011;39398;48.382;9.802;2022-07-23T05:24:31;10.80;;;8.48;;
53521;SDS011;39398;48.382;9.802;2022-07-23T05:25:33;9.40;;;7.57;;
53521;SDS011;39398;48.382;9.802;2022-07-23T05:26:34;9.13;;;8.13;;
53521;SDS011;39398;48.382;9.802;2022-07-23T05:27:36;8.73;;;7.82;;
53521;SDS011;39398;48.382;9.802;2022-07-23T05:28:38;9.32;;;7.97;;
53521;SDS011;39398;48.382;9.802;2022-07-23T05:29:39;9.38;;;8.48;;
53521;SDS011;39398;48.382;9.802;2022-07-23T05:30:42;11.25;;;9.10;;
53521;SDS011;39398;48.382;9.802;2022-07-23T05:31:44;9.32;;;8.43;;
53521;SDS011;39398;48.382;9.802;2022-07-23T05:32:45;9.00;;;8.10;;
53521;SDS011;39398;48.382;9.802;2022-07-23T05:33:47;14.10;;;8.88;;
53521;SDS011;39398;48.382;9.802;2022-07-23T05:34:48;10.05;;;8.95;;
53521;SDS011;39398;48.382;9.802;2022-07-23T05:35:50;13.77;;;8.95;;
53521;SDS011;39398;48.382;9.802;2022-07-23T05:36:51;13.02;;;8.65;;
53521;SDS011;39398;48.382;9.802;2022-07-23T05:37:59;12.57;;;8.85;;
53521;SDS011;39398;48.382;9.802;2022-07-23T05:39:00;14.15;;;9.13;;
53521;SDS011;39398;48.382;9.802;2022-07-23T05:40:02;14.75;;;8.65;;
53521;SDS011;39398;48.382;9.802;2022-07-23T05:41:05;10.27;;;9.18;;
53521;SDS011;39398;48.382;9.802;2022-07-23T05:42:06;14.82;;;9.07;;
53521;SDS011;39398;48.382;9.802;2022-07-23T05:43:08;10.63;;;9.20;;
53521;SDS011;39398;48.382;9.802;2022-07-23T05:44:09;12.55;;;9.23;;
53521;SDS011;39398;48.382;9.802;2022-07-23T05:45:11;11.13;;;9.40;;
53521;SDS011;39398;48.382;9.802;2022-07-23T05:46:14;11.18;;;8.57;;
53521;SDS011;39398;48.382;9.802;2022-07-23T05:47:16;11.48;;;9.05;;
53521;SDS011;39398;48.382;9.802;2022-07-23T05:48:17;10.05;;;8.35;;
53521;SDS011;39398;48.382;9.802;2022-07-23T05:49:19;11.05;;;9.18;;
53521;SDS011;39398;48.382;9.802;2022-07-23T05:50:21;10.82;;;9.15;;
53521;SDS011;39398;48.382;9.802;2022-07-23T05:51:22;11.75;;;9.50;;
53521;SDS011;39398;48.382;9.802;2022-07-23T05:52:25;10.30;;;8.65;;
53521;SDS011;39398;48.382;9.802;2022-07-23T05:53:26;9.82;;;8.63;;
53521;SDS011;39398;48.382;9.802;2022-07-23T05:54:28;10.98;;;8.80;;
53521;SDS011;39398;48.382;9.802;2022-07-23T05:55:29;10.73;;;8.25;;
53521;SDS011;39398;48.382;9.802;2022-07-23T05:56:31;11.73;;;9.05;;
53521;SDS011;39398;48.382;9.802;2022-07-23T05:57:32;11.35;;;8.93;;
53521;SDS011;39398;48.382;9.802;2022-07-23T05:58:34;9.75;;;8.75;;
53521;SDS011;39398;48.382;9.802;2022-07-23T05:59:36;13.30;;;9.27;;
53521;SDS011;39398;48.382;9.802;2022-07-23T06:00:37;11.55;;;9.10;;
53521;SDS011;39398;48.382;9.802;2022-07-23T06:01:40;10.27;;;8.73;;
53521;SDS011;39398;48.382;9.802;2022-07-23T06:02:42;20.10;;;9.38;;
53521;SDS011;39398;48.382;9.802;2022-07-23T06:03:44;9.77;;;8.55;;
53521;SDS011;39398;48.382;9.802;2022-07-23T06:04:45;10.25;;;8.77;;
53521;SDS011;39398;48.382;9.802;2022-07-23T06:05:47;9.32;;;8.20;;
53521;SDS011;39398;48.382;9.802;2022-07-23T06:06:48;13.63;;;8.65;;
53521;SDS011;39398;48.382;9.802;2022-07-23T06:07:50;9.70;;;8.70;;
53521;SDS011;39398;48.382;9.802;2022-07-23T06:08:51;10.13;;;8.85;;
53521;SDS011;39398;48.382;9.802;2022-07-23T06:09:53;11.68;;;9.45;;